createdAt,value
2024-02-09T00:01:22.957Z,95817.81
2024-02-09T00:03:49.394Z,95817.59
2024-02-09T00:06:16.995Z,95806.22
2024-02-09T00:08:44.254Z,95795.66
2024-02-09T00:11:10.687Z,95803.56
2024-02-09T00:13:37.085Z,95798.28
2024-02-09T00:16:03.953Z,95807.81
2024-02-09T00:18:30.632Z,95796.47
2024-02-09T00:20:58.709Z,95798.06
2024-02-09T00:23:25.047Z,95796.25
2024-02-09T00:25:51.598Z,95794.38
2024-02-09T00:28:18.151Z,95796.25
2024-02-09T00:30:44.606Z,95800.69
2024-02-09T00:33:12.296Z,95793.59
2024-02-09T00:35:41.265Z,95790.13
2024-02-09T00:38:15.421Z,95784.63
2024-02-09T00:40:43.095Z,95781.19
2024-02-09T00:43:09.732Z,95778.56
2024-02-09T00:45:38.720Z,95770.63
2024-02-09T00:48:05.130Z,95773.28
2024-02-09T00:50:33.047Z,95776.47
2024-02-09T00:52:59.374Z,95762.72
2024-02-09T00:55:25.819Z,95760.09
2024-02-09T00:57:53.426Z,95760.88
2024-02-09T01:00:21.846Z,95758.22
2024-02-09T01:02:48.893Z,95744.25
2024-02-09T01:05:15.610Z,95754.56
2024-02-09T01:07:42.108Z,95753.75
2024-02-09T01:10:08.518Z,95753.50
2024-02-09T01:12:34.865Z,95751.94
2024-02-09T01:15:01.168Z,95733.44
2024-02-09T01:17:27.455Z,95736.88
2024-02-09T01:19:53.661Z,95736.88
2024-02-09T01:22:19.836Z,95742.94
2024-02-09T01:24:46.038Z,95734.25
2024-02-09T01:27:12.190Z,95730.56
2024-02-09T01:29:38.341Z,95730.56
2024-02-09T01:32:04.541Z,95731.59
2024-02-09T01:34:30.732Z,95721.84
2024-02-09T01:36:57.030Z,95716.56
2024-02-09T01:39:23.252Z,95723.44
2024-02-09T01:41:49.413Z,95717.38
2024-02-09T01:44:15.614Z,95715.53
2024-02-09T01:46:41.928Z,95713.69
2024-02-09T01:49:08.457Z,95708.41
2024-02-09T01:51:34.719Z,95700.47
2024-02-09T01:54:00.885Z,95689.94
2024-02-09T01:56:27.032Z,95676.72
2024-02-09T01:58:53.211Z,95675.16
2024-02-09T02:01:19.556Z,95671.44
2024-02-09T02:03:45.746Z,95670.66
2024-02-09T02:06:11.987Z,95660.91
2024-02-09T02:08:38.131Z,95676.72
2024-02-09T02:11:04.418Z,95672.25
2024-02-09T02:13:30.610Z,95662.50
2024-02-09T02:15:56.852Z,95651.94
2024-02-09T02:18:23.056Z,95645.06
2024-02-09T02:20:49.209Z,95639.78
2024-02-09T02:23:15.380Z,95634.50
2024-02-09T02:25:41.716Z,95634.50
2024-02-09T02:28:07.964Z,95630.84
2024-02-09T02:30:35.458Z,95620.28
2024-02-09T02:33:01.735Z,95614.44
2024-02-09T02:35:27.939Z,95618.66
2024-02-09T02:37:54.109Z,95610.50
2024-02-09T02:40:20.356Z,95605.22
2024-02-09T02:42:46.571Z,95599.16
2024-02-09T02:45:12.797Z,95594.66
2024-02-09T02:47:39.024Z,95581.47
2024-02-09T02:50:05.268Z,95582.25
2024-02-09T02:52:31.768Z,95580.69
2024-02-09T02:54:57.982Z,95572.78
2024-02-09T02:57:24.237Z,95572.78
2024-02-09T02:59:50.438Z,95570.13
2024-02-09T03:02:16.580Z,95573.56
2024-02-09T03:04:42.777Z,95558.50
2024-02-09T03:09:38.181Z,95567.25
2024-02-09T03:12:04.396Z,95569.06
2024-02-09T03:14:30.598Z,95560.38
2024-02-09T03:16:56.745Z,95555.88
2024-02-09T03:19:22.991Z,95555.88
2024-02-09T03:21:49.267Z,95554.06
2024-02-09T03:24:15.513Z,95550.59
2024-02-09T03:26:41.666Z,95547.94
2024-02-09T03:29:07.842Z,95544.28
2024-02-09T03:31:33.991Z,95540.84
2024-02-09T03:34:00.396Z,95534.75
2024-02-09T03:36:26.724Z,95532.94
2024-02-09T03:38:52.896Z,95533.72
2024-02-09T03:41:19.123Z,95524.19
2024-02-09T03:43:45.304Z,95520.53
2024-02-09T03:46:11.498Z,95519.75
2024-02-09T03:48:37.695Z,95525.81
2024-02-09T03:51:03.889Z,95518.69
2024-02-09T03:53:30.049Z,95515.25
2024-02-09T03:55:56.207Z,95522.38
2024-02-09T03:58:22.366Z,95519.47
2024-02-09T04:00:48.565Z,95509.19
2024-02-09T04:03:14.764Z,95521.31
2024-02-09T04:05:41.126Z,95512.63
2024-02-09T04:08:07.369Z,95491.50
2024-02-09T04:10:42.919Z,95509.97
2024-02-09T04:13:10.606Z,95510.75
2024-02-09T04:15:36.883Z,95504.69
2024-02-09T04:18:03.288Z,95512.63
2024-02-09T04:20:29.536Z,95507.34
2024-02-09T04:22:55.676Z,95505.47
2024-02-09T04:25:21.845Z,95510.75
2024-02-09T04:27:48.038Z,95504.69
2024-02-09T04:30:14.212Z,95502.84
2024-02-09T04:32:40.414Z,95495.72
2024-02-09T04:35:06.651Z,95492.28
2024-02-09T04:37:32.887Z,95500.22
2024-02-09T04:39:59.099Z,95503.63
2024-02-09T04:42:25.285Z,95483.56
2024-02-09T04:44:51.448Z,95500.44
2024-02-09T04:47:17.594Z,95493.06
2024-02-09T04:49:43.769Z,95491.50
2024-02-09T04:52:10.019Z,95480.94
2024-02-09T04:54:36.207Z,95487.78
2024-02-09T04:57:02.406Z,95479.88
2024-02-09T04:59:28.583Z,95477.50
2024-02-09T05:01:54.767Z,95463.25
2024-02-09T05:04:21.143Z,95462.47
2024-02-09T05:06:47.412Z,95462.47
2024-02-09T05:09:13.589Z,95467.75
2024-02-09T05:11:39.905Z,95464.31
2024-02-09T05:14:06.153Z,95478.31
2024-02-09T05:16:32.366Z,95462.47
2024-02-09T05:18:58.709Z,95454.53
2024-02-09T05:21:24.980Z,95458.22
2024-02-09T05:23:51.116Z,95465.88
2024-02-09T05:26:17.274Z,95456.13
2024-02-09T05:28:43.471Z,95456.94
2024-02-09T05:31:09.759Z,95450.84
2024-02-09T05:33:36.063Z,95446.38
2024-02-09T05:36:02.225Z,95448.22
2024-02-09T05:38:28.382Z,95449.28
2024-02-09T05:40:54.601Z,95448.22
2024-02-09T05:43:20.848Z,95454.31
2024-02-09T05:45:47.008Z,95442.13
2024-02-09T05:48:14.446Z,95441.34
2024-02-09T05:50:42.442Z,95441.34
2024-02-09T05:53:09.052Z,95450.06
2024-02-09T05:55:35.318Z,95450.06
2024-02-09T05:58:01.552Z,95441.34
2024-02-09T06:00:27.735Z,95462.47
2024-02-09T06:02:53.963Z,95444.78
2024-02-09T06:05:20.214Z,95440.28
2024-02-09T06:07:46.557Z,95448.22
2024-02-09T06:10:12.807Z,95450.06
2024-02-09T06:12:39.395Z,95437.09
2024-02-09T06:15:05.656Z,95448.47
2024-02-09T06:17:31.857Z,95455.34
2024-02-09T06:19:58.062Z,95457.19
2024-02-09T06:22:24.284Z,95465.09
2024-02-09T06:24:50.474Z,95459.03
2024-02-09T06:27:16.637Z,95460.63
2024-02-09T06:29:42.779Z,95465.09
2024-02-09T06:32:08.926Z,95459.03
2024-02-09T06:34:35.190Z,95460.63
2024-02-09T06:37:01.625Z,95473.03
2024-02-09T06:39:27.876Z,95465.88
2024-02-09T06:41:54.041Z,95470.38
2024-02-09T06:44:20.409Z,95472.22
2024-02-09T06:46:46.734Z,95470.38
2024-02-09T06:49:13.116Z,95468.53
2024-02-09T06:51:39.426Z,95464.03
2024-02-09T06:54:05.589Z,95466.97
2024-02-09T06:56:31.766Z,95453.75
2024-02-09T06:58:57.949Z,95450.06
2024-02-09T07:01:24.225Z,95454.53
2024-02-09T07:03:50.424Z,95461.69
2024-02-09T07:06:16.630Z,95451.91
2024-02-09T07:08:42.890Z,95449.28
2024-02-09T07:11:09.084Z,95433.44
2024-02-09T07:13:35.322Z,95437.94
2024-02-09T07:16:01.558Z,95432.66
2024-02-09T07:18:27.770Z,95438.72
2024-02-09T07:20:53.992Z,95436.84
2024-02-09T07:23:20.174Z,95431.81
2024-02-09T07:25:46.462Z,95440.28
2024-02-09T07:28:12.726Z,95427.38
2024-02-09T07:30:38.937Z,95421.28
2024-02-09T07:33:05.167Z,95432.66
2024-02-09T07:35:31.341Z,95431.81
2024-02-09T07:37:57.519Z,95447.66
2024-02-09T07:40:23.708Z,95450.84
2024-02-09T07:42:49.877Z,95453.75
2024-02-09T07:45:16.102Z,95452.94
2024-02-09T07:47:42.352Z,95454.53
2024-02-09T07:50:08.552Z,95456.41
2024-02-09T07:52:34.739Z,95458.22
2024-02-09T07:55:04.836Z,95462.47
2024-02-09T07:57:31.841Z,95449.28
2024-02-09T07:59:58.015Z,95457.19
2024-02-09T08:02:24.233Z,95459.81
2024-02-09T08:04:50.588Z,95456.41
2024-02-09T08:07:16.964Z,95459.81
2024-02-09T08:09:43.139Z,95459.81
2024-02-09T08:12:12.566Z,95451.91
2024-02-09T08:14:39.878Z,95457.19
2024-02-09T08:17:06.052Z,95446.63
2024-02-09T08:19:32.256Z,95457.97
2024-02-09T08:21:58.771Z,95453.75
2024-02-09T08:24:24.941Z,95441.34
2024-02-09T08:26:54.088Z,95448.47
2024-02-09T08:29:20.564Z,95444.78
2024-02-09T08:31:46.933Z,95451.91
2024-02-09T08:34:13.239Z,95448.22
2024-02-09T08:36:39.436Z,95450.84
2024-02-09T08:39:05.631Z,95450.84
2024-02-09T08:41:31.896Z,95456.13
2024-02-09T08:43:58.095Z,95461.41
2024-02-09T08:46:24.288Z,95448.22
2024-02-09T08:48:50.522Z,95468.28
2024-02-09T08:51:16.812Z,95452.69
2024-02-09T08:53:44.752Z,95448.22
2024-02-09T08:56:12.427Z,95462.22
2024-02-09T08:58:38.782Z,95452.44
2024-02-09T09:01:05.954Z,95449.81
2024-02-09T09:03:32.505Z,95455.88
2024-02-09T09:05:58.848Z,95453.25
2024-02-09T09:08:25.009Z,95453.25
2024-02-09T09:10:51.264Z,95467.22
2024-02-09T09:13:17.636Z,95461.16
2024-02-09T09:15:43.830Z,95460.38
2024-02-09T09:18:10.013Z,95468.28
2024-02-09T09:20:36.196Z,95463.00
2024-02-09T09:23:02.362Z,95467.50
2024-02-09T09:25:28.650Z,95464.59
2024-02-09T09:27:54.909Z,95463.00
2024-02-09T09:30:22.230Z,95463.00
2024-02-09T09:32:49.501Z,95460.38
2024-02-09T09:35:15.811Z,95445.56
2024-02-09T09:37:48.474Z,95457.72
2024-02-09T09:40:14.824Z,95446.38
2024-02-09T09:42:41.057Z,95455.34
2024-02-09T09:45:07.282Z,95459.81
2024-02-09T09:47:33.478Z,95450.84
2024-02-09T09:49:59.676Z,95461.41
2024-02-09T09:52:25.899Z,95466.69
2024-02-09T09:54:53.582Z,95461.41
2024-02-09T09:57:19.892Z,95465.66
2024-02-09T09:59:46.041Z,95455.09
2024-02-09T10:02:12.255Z,95457.72
2024-02-09T10:04:38.639Z,95464.84
2024-02-09T10:07:04.955Z,95457.72
2024-02-09T10:09:31.131Z,95468.28
2024-02-09T10:11:57.347Z,95455.34
2024-02-09T10:14:23.502Z,95465.88
2024-02-09T10:16:49.880Z,95456.13
2024-02-09T10:19:16.486Z,95457.72
2024-02-09T10:21:50.341Z,95450.84
2024-02-09T10:24:20.040Z,95463.00
2024-02-09T10:26:46.241Z,95453.25
2024-02-09T10:29:12.373Z,95452.44
2024-02-09T10:31:38.658Z,95444.53
2024-02-09T10:34:04.991Z,95461.94
2024-02-09T10:36:31.353Z,95448.75
2024-02-09T10:38:57.653Z,95454.03
2024-02-09T10:41:23.827Z,95456.66
2024-02-09T10:43:50.051Z,95464.34
2024-02-09T10:46:16.332Z,95460.91
2024-02-09T10:48:42.643Z,95466.19
2024-02-09T10:51:08.878Z,95460.91
2024-02-09T10:53:37.049Z,95480.19
2024-02-09T10:56:03.386Z,95472.50
2024-02-09T10:58:29.999Z,95463.56
2024-02-09T11:00:56.385Z,95480.19
2024-02-09T11:03:22.685Z,95479.38
2024-02-09T11:05:51.450Z,95478.34
2024-02-09T11:08:17.824Z,95469.38
2024-02-09T11:10:44.045Z,95475.72
2024-02-09T11:13:10.312Z,95479.16
2024-02-09T11:15:36.569Z,95478.34
2024-02-09T11:18:02.840Z,95474.66
2024-02-09T11:20:29.099Z,95481.78
2024-02-09T11:22:55.247Z,95478.34
2024-02-09T11:25:21.398Z,95490.50
2024-02-09T11:27:47.609Z,95478.34
2024-02-09T11:30:13.823Z,95488.91
2024-02-09T11:32:40.049Z,95473.09
2024-02-09T11:35:06.310Z,95482.56
2024-02-09T11:37:32.604Z,95492.09
2024-02-09T11:39:58.797Z,95487.84
2024-02-09T11:42:34.518Z,95481.53
2024-02-09T11:45:01.898Z,95483.38
2024-02-09T11:47:28.087Z,95492.09
2024-02-09T11:49:54.311Z,95489.47
2024-02-09T11:52:20.556Z,95483.38
2024-02-09T11:54:46.790Z,95481.53
2024-02-09T11:57:14.584Z,95481.53
2024-02-09T11:59:40.904Z,95477.84
2024-02-09T12:02:07.130Z,95492.09
2024-02-09T12:04:33.584Z,95483.38
2024-02-09T12:07:00.040Z,95481.53
2024-02-09T12:09:26.293Z,95481.53
2024-02-09T12:11:52.502Z,95478.91
2024-02-09T12:14:18.663Z,95477.84
2024-02-09T12:16:44.869Z,95482.34
2024-02-09T12:19:11.189Z,95471.00
2024-02-09T12:21:37.550Z,95476.25
2024-02-09T12:24:03.687Z,95481.53
2024-02-09T12:26:30.411Z,95480.47
2024-02-09T12:28:56.822Z,95474.41
2024-02-09T12:31:23.227Z,95491.03
2024-02-09T12:33:49.686Z,95486.56
2024-02-09T12:36:16.073Z,95493.69
2024-02-09T12:38:45.785Z,95497.13
2024-02-09T12:41:12.382Z,95492.66
2024-02-09T12:43:38.533Z,95496.31
2024-02-09T12:46:04.742Z,95498.97
2024-02-09T12:48:31.018Z,95495.28
2024-02-09T12:50:57.417Z,95491.03
2024-02-09T12:53:23.748Z,95483.94
2024-02-09T12:55:50.015Z,95490.00
2024-02-09T12:58:16.318Z,95484.72
2024-02-09T13:00:42.526Z,95488.94
2024-02-09T13:03:08.696Z,95500.56
2024-02-09T13:05:34.941Z,95510.06
2024-02-09T13:08:01.080Z,95513.53
2024-02-09T13:10:27.280Z,95515.34
2024-02-09T13:12:53.508Z,95517.19
2024-02-09T13:15:19.651Z,95516.41
2024-02-09T13:17:45.931Z,95511.91
2024-02-09T13:20:12.255Z,95507.41
2024-02-09T13:22:38.404Z,95502.16
2024-02-09T13:25:07.631Z,95502.16
2024-02-09T13:27:33.910Z,95508.25
2024-02-09T13:30:00.380Z,95512.69
2024-02-09T13:32:26.731Z,95512.69
2024-02-09T13:34:52.955Z,95510.06
2024-02-09T13:37:19.126Z,95508.25
2024-02-09T13:39:45.314Z,95513.53
2024-02-09T13:42:11.540Z,95513.53
2024-02-09T13:44:37.676Z,95515.34
2024-02-09T13:47:03.836Z,95509.03
2024-02-09T13:49:30.071Z,95511.66
2024-02-09T13:51:56.282Z,95515.09
2024-02-09T13:54:22.457Z,95509.03
2024-02-09T13:56:48.762Z,95512.47
2024-02-09T13:59:14.962Z,95515.91
2024-02-09T14:01:44.005Z,95507.19
2024-02-09T14:04:10.268Z,95504.53
2024-02-09T14:06:36.492Z,95509.56
2024-02-09T14:09:02.690Z,95511.44
2024-02-09T14:11:28.866Z,95513.28
2024-02-09T14:13:55.085Z,95515.66
2024-02-09T14:16:21.313Z,95508.53
2024-02-09T14:18:47.589Z,95512.22
2024-02-09T14:21:13.800Z,95509.56
2024-02-09T14:23:39.960Z,95505.34
2024-02-09T14:26:08.767Z,95506.69
2024-02-09T14:28:35.073Z,95507.47
2024-02-09T14:31:01.396Z,95509.34
2024-02-09T14:33:29.721Z,95504.84
2024-02-09T14:35:55.901Z,95501.41
2024-02-09T14:38:25.541Z,95503.81
2024-02-09T14:40:53.507Z,95508.31
2024-02-09T14:43:19.797Z,95506.44
2024-02-09T14:45:46.046Z,95510.94
2024-02-09T14:48:14.133Z,95512.53
2024-02-09T14:50:40.421Z,95508.31
2024-02-09T14:53:06.587Z,95502.19
2024-02-09T14:55:32.924Z,95498.53
2024-02-09T14:57:59.241Z,95510.13
2024-02-09T15:00:25.403Z,95507.25
2024-02-09T15:02:51.624Z,95506.44
2024-02-09T15:05:18.101Z,95511.72
2024-02-09T15:07:45.447Z,95509.09
2024-02-09T15:10:11.877Z,95508.03
2024-02-09T15:12:38.236Z,95509.63
2024-02-09T15:15:04.507Z,95508.03
2024-02-09T15:17:30.722Z,95500.94
2024-02-09T15:19:57.187Z,95508.03
2024-02-09T15:22:23.510Z,95499.06
2024-02-09T15:24:49.711Z,95506.22
2024-02-09T15:27:15.939Z,95511.50
2024-02-09T15:32:22.448Z,95499.06
2024-02-09T15:34:53.071Z,95494.59
2024-02-09T15:37:21.244Z,95490.13
2024-02-09T15:39:47.502Z,95499.06
2024-02-09T15:42:13.645Z,95494.59
2024-02-09T15:44:39.861Z,95498.03
2024-02-09T15:47:06.088Z,95490.94
2024-02-09T15:49:32.297Z,95498.03
2024-02-09T15:51:58.440Z,95497.00
2024-02-09T15:54:24.604Z,95491.94
2024-02-09T15:56:50.747Z,95493.59
2024-02-09T15:59:16.928Z,95490.94
2024-02-09T16:01:43.169Z,95498.63
2024-02-09T16:04:09.365Z,95497.81
2024-02-09T16:06:35.954Z,95496.22
2024-02-09T16:09:02.248Z,95503.09
2024-02-09T16:11:28.389Z,95503.91
2024-02-09T16:13:54.593Z,95511.81
2024-02-09T16:16:20.835Z,95501.25
2024-02-09T16:18:47.057Z,95503.91
2024-02-09T16:21:13.227Z,95498.63
2024-02-09T16:23:39.380Z,95500.44
2024-02-09T16:26:06.264Z,95495.16
2024-02-09T16:28:32.714Z,95496.75
2024-02-09T16:30:59.059Z,95489.63
2024-02-09T16:33:27.450Z,95483.56
2024-02-09T16:35:53.653Z,95485.41
2024-02-09T16:38:19.888Z,95488.84
2024-02-09T16:40:46.093Z,95497.81
2024-02-09T16:43:12.348Z,95492.53
2024-02-09T16:45:38.583Z,95497.56
2024-02-09T16:48:04.766Z,95495.72
2024-02-09T16:50:31.020Z,95492.28
2024-02-09T16:52:57.258Z,95487.00
2024-02-09T16:55:23.425Z,95487.81
2024-02-09T16:57:49.589Z,95489.38
2024-02-09T17:00:15.809Z,95490.44
2024-02-09T17:02:41.982Z,95494.91
2024-02-09T17:05:08.409Z,95495.72
2024-02-09T17:07:34.826Z,95489.63
2024-02-09T17:10:01.008Z,95489.38
2024-02-09T17:12:27.160Z,95494.91
2024-02-09T17:14:53.397Z,95496.53
2024-02-09T17:17:19.535Z,95491.25
2024-02-09T17:19:45.740Z,95498.38
2024-02-09T17:22:11.980Z,95496.53
2024-02-09T17:24:38.227Z,95506.03
2024-02-09T17:27:04.407Z,95501.81
2024-02-09T17:29:30.583Z,95499.16
2024-02-09T17:31:56.793Z,95501.81
2024-02-09T17:34:23.077Z,95499.94
2024-02-09T17:36:49.318Z,95496.53
2024-02-09T17:39:15.523Z,95492.81
2024-02-09T17:41:41.712Z,95500.75
2024-02-09T17:44:07.888Z,95495.47
2024-02-09T17:46:34.041Z,95492.81
2024-02-09T17:49:00.294Z,95501.56
2024-02-09T17:51:26.479Z,95501.56
2024-02-09T17:53:52.657Z,95505.00
2024-02-09T17:56:18.844Z,95502.34
2024-02-09T17:58:45.080Z,95506.03
2024-02-09T18:01:11.440Z,95507.63
2024-02-09T18:03:37.783Z,95511.06
2024-02-09T18:06:04.029Z,95507.63
2024-02-09T18:08:30.194Z,95512.91
2024-02-09T18:10:58.045Z,95518.19
2024-02-09T18:13:24.535Z,95518.97
2024-02-09T18:15:57.024Z,95529.53
2024-02-09T18:18:23.523Z,95511.84
2024-02-09T18:20:49.764Z,95518.19
2024-02-09T18:23:15.911Z,95522.41
2024-02-09T18:25:42.201Z,95521.63
2024-02-09T18:28:08.493Z,95526.91
2024-02-09T18:30:34.743Z,95530.31
2024-02-09T18:33:01.115Z,95522.41
2024-02-09T18:35:27.796Z,95522.41
2024-02-09T18:37:54.058Z,95528.50
2024-02-09T18:40:20.220Z,95529.28
2024-02-09T18:42:46.420Z,95530.09
2024-02-09T18:45:15.409Z,95530.91
2024-02-09T18:47:41.667Z,95530.91
2024-02-09T18:50:07.891Z,95525.63
2024-02-09T18:52:34.099Z,95515.06
2024-02-09T18:55:00.278Z,95515.84
2024-02-09T18:57:26.756Z,95516.41
2024-02-09T18:59:52.917Z,95513.75
2024-02-09T19:02:19.036Z,95516.16
2024-02-09T19:04:45.423Z,95509.00
2024-02-09T19:07:11.674Z,95513.50
2024-02-09T19:09:37.856Z,95511.66
2024-02-09T19:12:04.112Z,95509.81
2024-02-09T19:14:30.281Z,95507.97
2024-02-09T19:16:56.463Z,95513.25
2024-02-09T19:19:22.753Z,95509.81
2024-02-09T19:21:48.957Z,95507.16
2024-02-09T19:24:15.122Z,95508.78
2024-02-09T19:26:50.068Z,95511.41
2024-02-09T19:29:16.285Z,95514.06
2024-02-09T19:31:42.486Z,95514.84
2024-02-09T19:34:08.930Z,95514.84
2024-02-09T19:36:35.364Z,95523.31
2024-02-09T19:39:01.668Z,95517.25
2024-02-09T19:41:27.969Z,95509.31
2024-02-09T19:43:54.288Z,95512.75
2024-02-09T19:46:20.612Z,95510.91
2024-02-09T19:48:46.872Z,95512.75
2024-02-09T19:51:13.114Z,95513.56
2024-02-09T19:53:40.611Z,95506.66
2024-02-09T19:56:06.932Z,95509.84
2024-02-09T19:58:33.206Z,95515.13
2024-02-09T20:00:59.601Z,95513.31
2024-02-09T20:03:28.363Z,95508.81
2024-02-09T20:05:54.860Z,95521.25
2024-02-09T20:08:21.108Z,95502.47
2024-02-09T20:10:47.438Z,95502.47
2024-02-09T20:13:13.905Z,95510.41
2024-02-09T20:15:40.149Z,95503.28
2024-02-09T20:18:06.495Z,95510.16
2024-02-09T20:20:32.692Z,95501.44
2024-02-09T20:22:59.095Z,95509.38
2024-02-09T20:25:25.341Z,95511.75
2024-02-09T20:27:51.665Z,95509.91
2024-02-09T20:30:17.925Z,95508.88
2024-02-09T20:32:44.312Z,95507.28
2024-02-09T20:35:12.669Z,95504.38
2024-02-09T20:37:39.216Z,95515.75
2024-02-09T20:40:05.430Z,95512.06
2024-02-09T20:42:31.727Z,95516.53
2024-02-09T20:44:57.933Z,95517.34
2024-02-09T20:47:24.119Z,95514.47
2024-02-09T20:49:50.315Z,95515.25
2024-02-09T20:52:16.493Z,95516.81
2024-02-09T20:54:42.670Z,95516.03
2024-02-09T20:57:08.867Z,95509.97
2024-02-09T20:59:35.038Z,95512.59
2024-02-09T21:02:01.228Z,95508.91
2024-02-09T21:04:27.576Z,95511.53
2024-02-09T21:06:53.867Z,95510.50
2024-02-09T21:09:20.125Z,95519.22
2024-02-09T21:11:46.291Z,95514.75
2024-02-09T21:14:12.456Z,95515.78
2024-02-09T21:16:38.626Z,95518.97
2024-02-09T21:19:04.808Z,95526.91
2024-02-09T21:21:30.975Z,95524.25
2024-02-09T21:23:59.466Z,95513.69
2024-02-09T21:26:25.852Z,95513.69
2024-02-09T21:28:52.067Z,95510.00
2024-02-09T21:31:18.289Z,95517.69
2024-02-09T21:33:44.537Z,95519.28
2024-02-09T21:36:10.780Z,95510.56
2024-02-09T21:38:37.058Z,95506.84
2024-02-09T21:41:03.305Z,95516.63
2024-02-09T21:43:29.540Z,95512.94
2024-02-09T21:45:55.690Z,95514.78
2024-02-09T21:48:21.932Z,95512.13
2024-02-09T21:50:48.108Z,95511.09
2024-02-09T21:53:14.295Z,95508.47
2024-02-09T21:55:40.486Z,95511.09
2024-02-09T21:58:06.662Z,95517.16
2024-02-09T22:00:32.822Z,95518.00
2024-02-09T22:02:59.090Z,95517.72
2024-02-09T22:05:25.374Z,95520.09
2024-02-09T22:07:51.987Z,95514.03
2024-02-09T22:10:18.273Z,95519.31
2024-02-09T22:12:44.484Z,95521.19
2024-02-09T22:15:10.615Z,95527.25
2024-02-09T22:17:36.879Z,95525.41
2024-02-09T22:20:03.202Z,95521.19
2024-02-09T22:22:29.424Z,95521.72
2024-02-09T22:24:55.610Z,95525.16
2024-02-09T22:27:21.880Z,95523.28
2024-02-09T22:29:48.054Z,95517.22
2024-02-09T22:32:14.288Z,95533.88
2024-02-09T22:34:41.971Z,95529.41
2024-02-09T22:37:09.370Z,95528.34
2024-02-09T22:39:42.161Z,95529.13
2024-02-09T22:42:08.901Z,95528.34
2024-02-09T22:44:35.049Z,95526.47
2024-02-09T22:47:01.198Z,95529.13
2024-02-09T22:49:27.405Z,95529.94
2024-02-09T22:51:53.570Z,95530.72
2024-02-09T22:54:19.713Z,95527.31
2024-02-09T22:56:45.873Z,95528.63
2024-02-09T22:59:12.012Z,95523.59
2024-02-09T23:01:38.221Z,95534.97
2024-02-09T23:04:04.452Z,95533.13
2024-02-09T23:06:30.643Z,95536.00
2024-02-09T23:08:56.796Z,95531.50
2024-02-09T23:11:23.006Z,95536.56
2024-02-09T23:13:49.336Z,95538.16
2024-02-09T23:16:15.645Z,95526.78
2024-02-09T23:18:41.914Z,95534.69
2024-02-09T23:21:08.628Z,95532.06
2024-02-09T23:23:34.779Z,95533.66
2024-02-09T23:26:01.070Z,95541.84
2024-02-09T23:28:27.291Z,95537.09
2024-02-09T23:30:53.457Z,95538.69
2024-02-09T23:33:19.643Z,95539.75
2024-02-09T23:35:45.910Z,95534.22
2024-02-09T23:38:12.088Z,95547.41
2024-02-09T23:40:38.274Z,95559.59
2024-02-09T23:43:04.428Z,95552.72
2024-02-09T23:45:30.588Z,95557.19
2024-02-09T23:47:56.802Z,95564.06
2024-02-09T23:50:23.092Z,95553.50
2024-02-09T23:52:49.510Z,95561.41
2024-02-09T23:55:16.236Z,95565.66
2024-02-09T23:57:42.610Z,95572.00
